createdAt,value
2023-05-05T00:00:38.945Z,14.00
2023-05-05T00:03:43.325Z,9.65
2023-05-05T00:06:46.229Z,8.23
2023-05-05T00:09:48.933Z,8.93
2023-05-05T00:12:51.466Z,9.73
2023-05-05T00:15:54.362Z,6.65
2023-05-05T00:18:58.282Z,6.18
2023-05-05T00:22:00.817Z,4.07
2023-05-05T00:25:04.827Z,4.50
2023-05-05T00:28:07.354Z,6.15
2023-05-05T00:31:09.875Z,5.60
2023-05-05T00:34:13.802Z,4.47
2023-05-05T00:37:16.589Z,2.95
2023-05-05T00:40:19.329Z,2.00
2023-05-05T00:43:21.910Z,5.85
2023-05-05T00:46:25.659Z,2.38
2023-05-05T00:49:29.564Z,4.10
2023-05-05T00:52:32.266Z,1.13
2023-05-05T00:55:35.315Z,1.77
2023-05-05T00:58:37.904Z,4.25
2023-05-05T01:01:40.562Z,2.65
2023-05-05T01:04:44.540Z,5.22
2023-05-05T01:07:53.884Z,3.65
2023-05-05T01:11:00.484Z,2.95
2023-05-05T01:14:06.924Z,3.20
2023-05-05T01:17:14.690Z,4.63
2023-05-05T01:20:22.027Z,4.47
2023-05-05T01:23:38.239Z,3.60
2023-05-05T01:26:53.799Z,3.15
2023-05-05T01:30:04.222Z,4.85
2023-05-05T01:33:10.222Z,2.83
2023-05-05T01:36:14.313Z,3.00
2023-05-05T01:39:17.084Z,2.90
2023-05-05T01:42:19.601Z,2.88
2023-05-05T01:45:25.744Z,3.35
2023-05-05T01:48:29.913Z,4.23
2023-05-05T01:51:32.913Z,6.20
2023-05-05T01:54:35.425Z,5.97
2023-05-05T01:57:38.049Z,5.35
2023-05-05T02:00:40.578Z,8.82
2023-05-05T02:03:44.477Z,10.43
2023-05-05T02:06:47.530Z,4.35
2023-05-05T02:09:50.143Z,6.80
2023-05-05T02:12:52.797Z,3.50
2023-05-05T02:15:55.419Z,4.57
2023-05-05T02:18:59.550Z,5.03
2023-05-05T02:22:02.126Z,7.72
2023-05-05T02:25:05.171Z,5.53
2023-05-05T02:28:09.187Z,4.93
2023-05-05T02:31:11.752Z,7.22
2023-05-05T02:34:17.196Z,5.45
2023-05-05T02:37:24.054Z,6.03
2023-05-05T02:40:27.555Z,4.70
2023-05-05T02:43:30.429Z,6.50
2023-05-05T02:46:33.043Z,8.32
2023-05-05T02:49:37.374Z,11.07
2023-05-05T02:52:40.006Z,12.15
2023-05-05T02:55:45.186Z,8.00
2023-05-05T02:58:53.183Z,8.77
2023-05-05T03:02:00.789Z,13.48
2023-05-05T03:05:07.635Z,11.13
2023-05-05T03:08:11.712Z,11.88
2023-05-05T03:11:17.045Z,10.43
2023-05-05T03:14:21.080Z,12.57
2023-05-05T03:17:23.678Z,16.88
2023-05-05T03:20:27.571Z,13.30
2023-05-05T03:23:30.170Z,16.05
2023-05-05T03:26:32.734Z,17.45
2023-05-05T03:29:35.356Z,15.70
2023-05-05T03:32:38.045Z,18.20
2023-05-05T03:35:41.985Z,23.73
2023-05-05T03:38:44.501Z,23.52
2023-05-05T03:41:47.002Z,28.88
2023-05-05T03:44:49.559Z,23.80
2023-05-05T03:47:52.218Z,31.20
2023-05-05T03:50:56.376Z,25.17
2023-05-05T03:53:58.934Z,29.80
2023-05-05T03:57:02.341Z,32.60
2023-05-05T04:00:05.936Z,35.92
2023-05-05T04:03:08.825Z,36.55
2023-05-05T04:06:12.831Z,30.83
2023-05-05T04:09:15.519Z,36.92
2023-05-05T04:12:18.091Z,35.08
2023-05-05T04:15:20.678Z,35.15
2023-05-05T04:18:23.428Z,38.08
2023-05-05T04:21:27.359Z,32.53
2023-05-05T04:24:29.900Z,31.60
2023-05-05T04:27:32.460Z,37.28
2023-05-05T04:30:35.059Z,39.55
2023-05-05T04:33:37.613Z,42.42
2023-05-05T04:36:41.523Z,39.47
2023-05-05T04:39:44.034Z,40.03
2023-05-05T04:42:46.521Z,33.50
2023-05-05T04:45:55.309Z,34.58
2023-05-05T04:48:59.572Z,38.40
2023-05-05T04:52:03.633Z,33.10
2023-05-05T04:55:07.206Z,33.58
2023-05-05T04:58:09.742Z,33.38
2023-05-05T05:01:12.313Z,35.22
2023-05-05T05:04:18.336Z,29.50
2023-05-05T05:07:22.271Z,34.97
2023-05-05T05:10:24.844Z,35.60
2023-05-05T05:13:27.389Z,39.72
2023-05-05T05:16:30.091Z,31.45
2023-05-05T05:19:32.656Z,33.05
2023-05-05T05:22:38.297Z,35.53
2023-05-05T05:25:40.864Z,32.20
2023-05-05T05:28:43.423Z,35.13
2023-05-05T05:31:45.969Z,39.47
2023-05-05T05:34:48.533Z,36.92
2023-05-05T05:37:52.743Z,32.20
2023-05-05T05:40:55.350Z,36.63
2023-05-05T05:43:57.962Z,31.60
2023-05-05T05:47:00.506Z,32.72
2023-05-05T05:50:04.745Z,29.02
2023-05-05T05:53:08.657Z,28.73
2023-05-05T05:56:11.283Z,28.35
2023-05-05T05:59:13.822Z,31.60
2023-05-05T06:02:16.384Z,23.90
2023-05-05T06:05:19.066Z,24.80
2023-05-05T06:08:24.982Z,22.00
2023-05-05T06:11:27.702Z,26.05
2023-05-05T06:14:30.246Z,22.05
2023-05-05T06:17:32.776Z,24.45
2023-05-05T06:20:35.349Z,24.75
2023-05-05T06:23:39.281Z,16.40
2023-05-05T06:26:42.745Z,16.08
2023-05-05T06:29:45.265Z,22.00
2023-05-05T06:32:47.887Z,18.05
2023-05-05T06:35:52.243Z,15.95
2023-05-05T06:38:56.125Z,14.38
2023-05-05T06:41:58.683Z,13.02
2023-05-05T06:45:01.417Z,16.13
2023-05-05T06:48:04.012Z,13.35
2023-05-05T06:51:06.620Z,15.95
2023-05-05T06:54:10.693Z,14.75
2023-05-05T06:57:13.192Z,21.00
2023-05-05T07:00:17.371Z,11.18
2023-05-05T07:03:19.984Z,12.32
2023-05-05T07:06:22.797Z,11.73
2023-05-05T07:09:26.703Z,10.15
2023-05-05T07:12:30.133Z,10.00
2023-05-05T07:15:32.740Z,8.50
2023-05-05T07:18:35.344Z,10.05
2023-05-05T07:21:39.556Z,9.20
2023-05-05T07:24:43.465Z,10.43
2023-05-05T07:27:46.004Z,11.45
2023-05-05T07:30:48.567Z,11.23
2023-05-05T07:33:51.076Z,9.73
2023-05-05T07:36:56.221Z,7.45
2023-05-05T07:40:00.069Z,7.72
2023-05-05T07:43:02.600Z,7.32
2023-05-05T07:46:05.183Z,8.00
2023-05-05T07:49:07.769Z,7.20
2023-05-05T07:52:10.331Z,8.38
2023-05-05T07:55:14.261Z,8.20
2023-05-05T07:58:17.020Z,8.25
2023-05-05T08:01:20.126Z,7.07
2023-05-05T08:04:22.791Z,7.57
2023-05-05T08:07:25.477Z,5.65
2023-05-05T08:10:29.340Z,4.60
2023-05-05T08:13:31.914Z,8.90
2023-05-05T08:16:34.785Z,6.13
2023-05-05T08:19:37.334Z,8.20
2023-05-05T08:22:39.915Z,9.82
2023-05-05T08:25:44.387Z,5.80
2023-05-05T08:28:48.558Z,3.65
2023-05-05T08:31:51.084Z,5.65
2023-05-05T08:34:53.739Z,4.07
2023-05-05T08:37:58.787Z,2.35
2023-05-05T08:41:03.888Z,2.97
2023-05-05T08:44:06.539Z,5.18
2023-05-05T08:47:09.290Z,4.70
2023-05-05T08:50:12.518Z,5.38
2023-05-05T08:53:17.367Z,3.47
2023-05-05T08:56:21.817Z,5.85
2023-05-05T08:59:25.142Z,3.35
2023-05-05T09:02:29.720Z,4.75
2023-05-05T09:05:32.284Z,3.63
2023-05-05T09:08:34.849Z,3.85
2023-05-05T09:11:38.798Z,4.78
2023-05-05T09:14:41.370Z,3.90
2023-05-05T09:17:44.062Z,8.10
2023-05-05T09:20:46.852Z,5.90
2023-05-05T09:24:08.089Z,5.88
2023-05-05T09:27:22.320Z,7.45
2023-05-05T09:30:25.872Z,4.25
2023-05-05T09:33:31.959Z,6.78
2023-05-05T09:36:44.772Z,9.02
2023-05-05T09:39:54.361Z,7.15
2023-05-05T09:43:03.017Z,5.63
2023-05-05T09:46:08.865Z,6.78
2023-05-05T09:49:15.436Z,6.38
2023-05-05T09:52:18.006Z,8.82
2023-05-05T09:55:20.605Z,6.40
2023-05-05T09:58:24.967Z,10.30
2023-05-05T10:01:27.593Z,12.32
2023-05-05T10:04:31.027Z,6.60
2023-05-05T10:07:33.699Z,12.85
2023-05-05T10:10:36.236Z,4.75
2023-05-05T10:13:41.800Z,3.08
2023-05-05T10:16:48.226Z,5.72
2023-05-05T10:19:51.088Z,7.15
2023-05-05T10:22:53.746Z,5.47
2023-05-05T10:26:01.660Z,3.92
2023-05-05T10:29:05.722Z,7.60
2023-05-05T10:32:40.787Z,3.25
2023-05-05T10:35:36.471Z,8.30
2023-05-05T10:38:38.966Z,3.20
2023-05-05T10:41:41.596Z,5.25
2023-05-05T10:44:45.485Z,3.35
2023-05-05T10:47:48.128Z,4.50
2023-05-05T10:50:52.496Z,4.50
2023-05-05T10:53:57.910Z,4.85
2023-05-05T10:57:02.561Z,9.15
2023-05-05T11:00:08.533Z,2.33
2023-05-05T11:03:21.733Z,6.93
2023-05-05T11:06:24.319Z,7.85
2023-05-05T11:09:29.957Z,8.20
2023-05-05T11:12:32.945Z,8.25
2023-05-05T11:15:40.411Z,11.93
2023-05-05T11:18:44.431Z,11.73
2023-05-05T11:22:00.662Z,12.75
2023-05-05T11:25:20.657Z,9.50
2023-05-05T11:28:25.446Z,9.48
2023-05-05T11:31:30.513Z,10.30
2023-05-05T11:34:33.232Z,9.05
2023-05-05T11:37:35.745Z,9.25
2023-05-05T11:40:38.298Z,11.07
2023-05-05T11:43:41.217Z,9.30
2023-05-05T11:47:29.079Z,8.77
2023-05-05T11:50:33.179Z,11.18
2023-05-05T11:53:35.734Z,10.38
2023-05-05T11:56:38.284Z,8.55
2023-05-05T11:59:50.619Z,9.90
2023-05-05T12:02:58.850Z,8.77
2023-05-05T12:06:01.479Z,6.93
2023-05-05T12:09:04.964Z,10.30
2023-05-05T12:12:08.028Z,11.98
2023-05-05T12:15:11.789Z,12.98
2023-05-05T12:18:20.569Z,13.93
2023-05-05T12:21:23.228Z,16.58
2023-05-05T12:24:25.740Z,7.80
2023-05-05T12:27:28.939Z,4.57
2023-05-05T12:30:31.583Z,10.60
2023-05-05T12:33:40.609Z,7.18
2023-05-05T12:36:43.209Z,5.75
2023-05-05T12:39:46.056Z,8.20
2023-05-05T12:42:49.112Z,7.22
2023-05-05T12:46:00.454Z,7.90
2023-05-05T12:49:05.561Z,5.72
2023-05-05T12:52:09.854Z,6.78
2023-05-05T12:55:12.638Z,4.57
2023-05-05T12:58:15.200Z,7.15
2023-05-05T13:01:17.766Z,4.53
2023-05-05T13:04:22.788Z,3.38
2023-05-05T13:07:25.369Z,8.02
2023-05-05T13:10:28.176Z,8.68
2023-05-05T13:13:32.979Z,4.28
2023-05-05T13:16:35.925Z,3.40
2023-05-05T13:19:45.813Z,2.70
2023-05-05T13:22:48.336Z,3.63
2023-05-05T13:25:50.921Z,3.97
2023-05-05T13:28:53.476Z,3.55
2023-05-05T13:31:55.997Z,3.78
2023-05-05T13:34:59.882Z,3.22
2023-05-05T13:38:02.436Z,3.70
2023-05-05T13:41:05.010Z,1.05
2023-05-05T13:44:07.573Z,1.20
2023-05-05T13:47:10.171Z,5.75
2023-05-05T13:50:14.124Z,1.63
2023-05-05T13:53:16.755Z,1.40
2023-05-05T13:56:19.468Z,4.57
2023-05-05T13:59:22.060Z,2.40
2023-05-05T14:02:24.850Z,3.90
2023-05-05T14:05:28.884Z,2.72
2023-05-05T14:08:31.451Z,0.88
2023-05-05T14:11:34.008Z,1.23
2023-05-05T14:14:37.055Z,1.67
2023-05-05T14:17:39.673Z,1.50
2023-05-05T14:20:43.651Z,1.98
2023-05-05T14:23:46.197Z,0.85
2023-05-05T14:26:49.143Z,2.00
2023-05-05T14:29:51.702Z,2.60
2023-05-05T14:32:54.292Z,5.55
2023-05-05T14:35:58.175Z,4.05
2023-05-05T14:39:00.752Z,2.03
2023-05-05T14:42:03.345Z,2.40
2023-05-05T14:45:07.119Z,7.60
2023-05-05T14:48:09.966Z,2.90
2023-05-05T14:51:14.666Z,4.15
2023-05-05T14:54:27.323Z,3.83
2023-05-05T14:57:31.425Z,3.15
2023-05-05T15:00:33.986Z,4.68
2023-05-05T15:03:36.686Z,4.93
2023-05-05T15:06:40.600Z,7.30
2023-05-05T15:09:43.181Z,8.35
2023-05-05T15:12:45.768Z,12.18
2023-05-05T15:15:48.816Z,10.50
2023-05-05T15:18:51.421Z,10.40
2023-05-05T15:21:55.432Z,9.82
2023-05-05T15:24:58.015Z,8.13
2023-05-05T15:28:00.859Z,10.70
2023-05-05T15:31:03.506Z,7.85
2023-05-05T15:34:06.016Z,8.15
2023-05-05T15:37:09.972Z,7.50
2023-05-05T15:40:13.017Z,10.05
2023-05-05T15:43:15.595Z,14.98
2023-05-05T15:46:18.158Z,6.25
2023-05-05T15:49:20.675Z,9.45
2023-05-05T15:52:24.554Z,7.07
2023-05-05T15:55:27.290Z,10.52
2023-05-05T15:58:29.837Z,8.40
2023-05-05T16:01:33.400Z,10.25
2023-05-05T16:04:36.004Z,11.38
2023-05-05T16:07:39.872Z,11.00
2023-05-05T16:10:42.411Z,9.65
2023-05-05T16:13:45.070Z,10.48
2023-05-05T16:16:47.679Z,8.55
2023-05-05T16:19:50.370Z,5.70
2023-05-05T16:22:54.284Z,7.97
2023-05-05T16:25:56.998Z,8.65
2023-05-05T16:28:59.572Z,12.70
2023-05-05T16:32:02.149Z,5.55
2023-05-05T16:35:07.089Z,8.73
2023-05-05T16:38:11.446Z,11.02
2023-05-05T16:41:14.021Z,14.52
2023-05-05T16:44:16.690Z,13.13
2023-05-05T16:47:19.201Z,14.27
2023-05-05T16:50:21.764Z,14.70
2023-05-05T16:53:25.664Z,14.88
2023-05-05T16:56:28.199Z,16.05
2023-05-05T16:59:31.726Z,14.07
2023-05-05T17:02:35.214Z,12.82
2023-05-05T17:05:37.798Z,12.52
2023-05-05T17:08:41.756Z,12.77
2023-05-05T17:11:44.264Z,12.63
2023-05-05T17:14:46.925Z,12.82
2023-05-05T17:17:49.559Z,12.55
2023-05-05T17:20:52.227Z,19.23
2023-05-05T17:23:56.104Z,17.80
2023-05-05T17:26:59.488Z,11.60
2023-05-05T17:30:02.000Z,14.50
2023-05-05T17:33:04.604Z,11.80
2023-05-05T17:36:07.968Z,13.23
2023-05-05T17:39:12.226Z,11.82
2023-05-05T17:42:16.500Z,9.93
2023-05-05T17:45:19.259Z,14.77
2023-05-05T17:48:21.845Z,16.38
2023-05-05T17:51:24.577Z,15.27
2023-05-05T17:54:28.485Z,12.85
2023-05-05T17:57:31.111Z,14.55
2023-05-05T18:00:33.682Z,16.00
2023-05-05T18:03:37.277Z,11.60
2023-05-05T18:06:41.783Z,13.30
2023-05-05T18:09:45.692Z,15.05
2023-05-05T18:12:48.320Z,14.35
2023-05-05T18:15:50.898Z,11.95
2023-05-05T18:18:53.438Z,12.57
2023-05-05T18:21:55.957Z,10.88
2023-05-05T18:24:59.796Z,10.43
2023-05-05T18:28:02.379Z,10.52
2023-05-05T18:31:05.026Z,10.60
2023-05-05T18:34:07.629Z,12.32
2023-05-05T18:37:10.180Z,12.15
2023-05-05T18:40:14.712Z,12.00
2023-05-05T18:43:17.305Z,11.50
2023-05-05T18:46:19.990Z,13.20
2023-05-05T18:49:23.168Z,16.17
2023-05-05T18:52:27.275Z,12.27
2023-05-05T18:55:31.131Z,13.20
2023-05-05T18:58:33.836Z,13.40
2023-05-05T19:01:36.381Z,13.88
2023-05-05T19:04:39.444Z,11.98
2023-05-05T19:07:41.978Z,14.60
2023-05-05T19:10:46.277Z,15.13
2023-05-05T19:13:48.942Z,16.05
2023-05-05T19:16:51.482Z,16.30
2023-05-05T19:19:53.985Z,15.80
2023-05-05T19:22:58.115Z,13.82
2023-05-05T19:26:03.426Z,14.70
2023-05-05T19:29:05.981Z,14.07
2023-05-05T19:32:08.657Z,11.45
2023-05-05T19:35:11.753Z,13.45
2023-05-05T19:38:14.610Z,15.70
2023-05-05T19:41:18.723Z,13.88
2023-05-05T19:44:22.440Z,11.93
2023-05-05T19:47:25.010Z,14.32
2023-05-05T19:50:27.688Z,14.20
2023-05-05T19:53:30.232Z,15.65
2023-05-05T19:56:34.135Z,12.25
2023-05-05T19:59:36.669Z,13.65
2023-05-05T20:02:39.341Z,11.07
2023-05-05T20:05:41.945Z,14.25
2023-05-05T20:08:44.479Z,14.57
2023-05-05T20:11:48.438Z,13.48
2023-05-05T20:14:50.974Z,14.73
2023-05-05T20:17:53.676Z,14.63
2023-05-05T20:20:56.226Z,19.30
2023-05-05T20:23:59.620Z,16.20
2023-05-05T20:27:05.179Z,16.67
2023-05-05T20:30:09.532Z,20.00
2023-05-05T20:33:12.402Z,19.42
2023-05-05T20:36:14.988Z,13.60
2023-05-05T20:39:17.562Z,14.82
2023-05-05T20:42:22.917Z,16.95
2023-05-05T20:45:25.439Z,19.83
2023-05-05T20:48:28.054Z,18.20
2023-05-05T20:51:34.076Z,17.60
2023-05-05T20:54:36.877Z,14.60
2023-05-05T20:57:40.764Z,13.68
2023-05-05T21:00:43.393Z,13.82
2023-05-05T21:03:46.063Z,15.98
2023-05-05T21:06:48.595Z,17.98
2023-05-05T21:09:51.101Z,17.40
2023-05-05T21:12:55.016Z,15.65
2023-05-05T21:15:57.598Z,15.02
2023-05-05T21:19:00.419Z,14.52
2023-05-05T21:22:03.005Z,14.95
2023-05-05T21:25:12.260Z,13.45
2023-05-05T21:28:16.305Z,19.02
2023-05-05T21:31:22.153Z,19.08
2023-05-05T21:34:25.042Z,17.33
2023-05-05T21:37:27.645Z,14.77
2023-05-05T21:40:30.324Z,18.48
2023-05-05T21:43:34.198Z,20.08
2023-05-05T21:46:36.744Z,20.38
2023-05-05T21:49:39.420Z,23.58
2023-05-05T21:52:41.980Z,17.73
2023-05-05T21:55:44.601Z,19.50
2023-05-05T21:58:48.517Z,20.75
2023-05-05T22:01:51.177Z,20.13
2023-05-05T22:04:53.810Z,16.77
2023-05-05T22:07:56.380Z,22.15
2023-05-05T22:10:58.975Z,18.13
2023-05-05T22:14:02.904Z,20.98
2023-05-05T22:17:05.470Z,15.65
2023-05-05T22:20:09.684Z,17.52
2023-05-05T22:23:13.961Z,16.67
2023-05-05T22:26:16.575Z,21.80
2023-05-05T22:29:20.467Z,17.55
2023-05-05T22:32:23.040Z,20.63
2023-05-05T22:35:25.641Z,19.27
2023-05-05T22:38:28.215Z,15.82
2023-05-05T22:41:30.711Z,17.98
2023-05-05T22:44:34.609Z,20.38
2023-05-05T22:47:37.311Z,19.13
2023-05-05T22:50:39.854Z,15.95
2023-05-05T22:53:42.372Z,22.92
2023-05-05T22:56:44.896Z,27.02
2023-05-05T22:59:48.760Z,27.70
2023-05-05T23:02:51.471Z,25.40
2023-05-05T23:05:54.235Z,23.25
2023-05-05T23:08:56.806Z,21.88
2023-05-05T23:11:59.295Z,23.67
2023-05-05T23:15:03.234Z,17.33
2023-05-05T23:18:05.791Z,20.50
2023-05-05T23:21:08.398Z,20.30
2023-05-05T23:24:10.912Z,20.85
2023-05-05T23:27:13.460Z,20.10
2023-05-05T23:30:17.566Z,20.27
2023-05-05T23:33:20.226Z,18.42
2023-05-05T23:36:22.786Z,23.35
2023-05-05T23:39:25.290Z,23.90
2023-05-05T23:42:27.812Z,24.60
2023-05-05T23:45:31.717Z,24.90
2023-05-05T23:48:34.235Z,23.05
2023-05-05T23:51:36.768Z,17.95
2023-05-05T23:54:39.267Z,19.58
2023-05-05T23:57:41.780Z,17.50
